sensor_id;sensor_type;location;lat;lon;timestamp;P1;durP1;ratioP1;P2;durP2;ratioP2
59856;SDS011;45733;52.668;6.860;2022-09-20T00:00:39;0.50;;;0.50;;
59856;SDS011;45733;52.668;6.860;2022-09-20T00:03:06;0.50;;;0.50;;
59856;SDS011;45733;52.668;6.860;2022-09-20T00:05:36;0.50;;;0.50;;
59856;SDS011;45733;52.668;6.860;2022-09-20T00:08:03;0.55;;;0.55;;
59856;SDS011;45733;52.668;6.860;2022-09-20T00:10:32;0.50;;;0.50;;
59856;SDS011;45733;52.668;6.860;2022-09-20T00:13:04;0.50;;;0.50;;
59856;SDS011;45733;52.668;6.860;2022-09-20T00:15:32;0.50;;;0.50;;
59856;SDS011;45733;52.668;6.860;2022-09-20T00:17:59;0.50;;;0.50;;
59856;SDS011;45733;52.668;6.860;2022-09-20T00:20:25;0.50;;;0.50;;
59856;SDS011;45733;52.668;6.860;2022-09-20T00:22:52;0.50;;;0.50;;
59856;SDS011;45733;52.668;6.860;2022-09-20T00:25:18;0.50;;;0.50;;
59856;SDS011;45733;52.668;6.860;2022-09-20T00:27:44;0.50;;;0.50;;
59856;SDS011;45733;52.668;6.860;2022-09-20T00:30:11;0.50;;;0.50;;
59856;SDS011;45733;52.668;6.860;2022-09-20T00:32:38;0.50;;;0.50;;
59856;SDS011;45733;52.668;6.860;2022-09-20T00:35:05;0.50;;;0.50;;
59856;SDS011;45733;52.668;6.860;2022-09-20T00:37:32;0.50;;;0.50;;
59856;SDS011;45733;52.668;6.860;2022-09-20T00:40:14;0.50;;;0.50;;
59856;SDS011;45733;52.668;6.860;2022-09-20T00:42:44;0.50;;;0.50;;
59856;SDS011;45733;52.668;6.860;2022-09-20T00:50:43;0.50;;;0.50;;
59856;SDS011;45733;52.668;6.860;2022-09-20T00:53:15;0.50;;;0.50;;
59856;SDS011;45733;52.668;6.860;2022-09-20T00:56:07;0.50;;;0.50;;
59856;SDS011;45733;52.668;6.860;2022-09-20T00:58:34;0.50;;;0.50;;
59856;SDS011;45733;52.668;6.860;2022-09-20T01:01:04;0.50;;;0.50;;
59856;SDS011;45733;52.668;6.860;2022-09-20T01:03:30;0.50;;;0.50;;
59856;SDS011;45733;52.668;6.860;2022-09-20T01:06:02;0.50;;;0.50;;
59856;SDS011;45733;52.668;6.860;2022-09-20T01:08:31;0.57;;;0.57;;
59856;SDS011;45733;52.668;6.860;2022-09-20T01:10:58;0.50;;;0.50;;
59856;SDS011;45733;52.668;6.860;2022-09-20T01:13:24;0.50;;;0.50;;
59856;SDS011;45733;52.668;6.860;2022-09-20T01:15:50;0.50;;;0.50;;
59856;SDS011;45733;52.668;6.860;2022-09-20T01:18:17;0.50;;;0.50;;
59856;SDS011;45733;52.668;6.860;2022-09-20T01:20:44;0.50;;;0.50;;
59856;SDS011;45733;52.668;6.860;2022-09-20T01:26:01;0.50;;;0.50;;
59856;SDS011;45733;52.668;6.860;2022-09-20T01:28:38;0.50;;;0.50;;
59856;SDS011;45733;52.668;6.860;2022-09-20T01:33:46;0.50;;;0.50;;
59856;SDS011;45733;52.668;6.860;2022-09-20T01:39:33;0.50;;;0.50;;
59856;SDS011;45733;52.668;6.860;2022-09-20T01:42:01;0.50;;;0.50;;
59856;SDS011;45733;52.668;6.860;2022-09-20T01:47:08;0.60;;;0.60;;
59856;SDS011;45733;52.668;6.860;2022-09-20T01:57:24;0.50;;;0.50;;
59856;SDS011;45733;52.668;6.860;2022-09-20T02:00:03;0.50;;;0.50;;
59856;SDS011;45733;52.668;6.860;2022-09-20T02:02:38;0.50;;;0.50;;
59856;SDS011;45733;52.668;6.860;2022-09-20T02:08:33;0.50;;;0.50;;
59856;SDS011;45733;52.668;6.860;2022-09-20T02:11:28;0.60;;;0.60;;
59856;SDS011;45733;52.668;6.860;2022-09-20T02:14:20;0.50;;;0.50;;
59856;SDS011;45733;52.668;6.860;2022-09-20T02:19:40;0.60;;;0.60;;
59856;SDS011;45733;52.668;6.860;2022-09-20T02:22:40;0.60;;;0.60;;
59856;SDS011;45733;52.668;6.860;2022-09-20T02:25:33;0.50;;;0.50;;
59856;SDS011;45733;52.668;6.860;2022-09-20T02:30:51;0.60;;;0.60;;
59856;SDS011;45733;52.668;6.860;2022-09-20T02:33:34;0.50;;;0.50;;
59856;SDS011;45733;52.668;6.860;2022-09-20T02:41:50;0.50;;;0.50;;
59856;SDS011;45733;52.668;6.860;2022-09-20T02:44:23;0.50;;;0.50;;
59856;SDS011;45733;52.668;6.860;2022-09-20T02:49:41;0.50;;;0.50;;
59856;SDS011;45733;52.668;6.860;2022-09-20T02:55:06;0.50;;;0.50;;
59856;SDS011;45733;52.668;6.860;2022-09-20T03:00:32;0.50;;;0.50;;
59856;SDS011;45733;52.668;6.860;2022-09-20T03:06:18;0.50;;;0.50;;
59856;SDS011;45733;52.668;6.860;2022-09-20T03:11:52;0.50;;;0.50;;
59856;SDS011;45733;52.668;6.860;2022-09-20T03:14:27;0.55;;;0.55;;
59856;SDS011;45733;52.668;6.860;2022-09-20T03:25:58;0.60;;;0.60;;
59856;SDS011;45733;52.668;6.860;2022-09-20T03:39:50;0.50;;;0.50;;
59856;SDS011;45733;52.668;6.860;2022-09-20T03:42:47;0.60;;;0.60;;
59856;SDS011;45733;52.668;6.860;2022-09-20T03:50:46;0.50;;;0.50;;
59856;SDS011;45733;52.668;6.860;2022-09-20T04:12:39;0.55;;;0.55;;
59856;SDS011;45733;52.668;6.860;2022-09-20T04:15:28;0.50;;;0.50;;
59856;SDS011;45733;52.668;6.860;2022-09-20T04:26:11;0.70;;;0.70;;
59856;SDS011;45733;52.668;6.860;2022-09-20T04:28:52;0.60;;;0.60;;
59856;SDS011;45733;52.668;6.860;2022-09-20T04:31:47;0.50;;;0.50;;
59856;SDS011;45733;52.668;6.860;2022-09-20T04:34:23;0.50;;;0.50;;
59856;SDS011;45733;52.668;6.860;2022-09-20T04:37:23;0.60;;;0.60;;
59856;SDS011;45733;52.668;6.860;2022-09-20T04:52:01;0.50;;;0.50;;
59856;SDS011;45733;52.668;6.860;2022-09-20T05:00:05;0.60;;;0.60;;
59856;SDS011;45733;52.668;6.860;2022-09-20T05:05:41;0.50;;;0.50;;
59856;SDS011;45733;52.668;6.860;2022-09-20T05:11:36;0.60;;;0.60;;
59856;SDS011;45733;52.668;6.860;2022-09-20T05:19:50;0.50;;;0.50;;
59856;SDS011;45733;52.668;6.860;2022-09-20T05:31:21;0.50;;;0.50;;
59856;SDS011;45733;52.668;6.860;2022-09-20T05:34:16;0.60;;;0.60;;
59856;SDS011;45733;52.668;6.860;2022-09-20T05:37:11;0.60;;;0.60;;
59856;SDS011;45733;52.668;6.860;2022-09-20T05:39:45;0.50;;;0.50;;
59856;SDS011;45733;52.668;6.860;2022-09-20T05:48:23;0.50;;;0.50;;
59856;SDS011;45733;52.668;6.860;2022-09-20T05:53:38;0.60;;;0.60;;
59856;SDS011;45733;52.668;6.860;2022-09-20T06:15:59;0.50;;;0.50;;
59856;SDS011;45733;52.668;6.860;2022-09-20T06:27:07;0.50;;;0.50;;
59856;SDS011;45733;52.668;6.860;2022-09-20T06:29:39;0.50;;;0.50;;
59856;SDS011;45733;52.668;6.860;2022-09-20T06:32:08;0.52;;;0.52;;
59856;SDS011;45733;52.668;6.860;2022-09-20T06:34:34;0.50;;;0.50;;
59856;SDS011;45733;52.668;6.860;2022-09-20T06:37:09;0.57;;;0.57;;
59856;SDS011;45733;52.668;6.860;2022-09-20T06:40:30;0.50;;;0.50;;
59856;SDS011;45733;52.668;6.860;2022-09-20T06:43:29;0.50;;;0.50;;
59856;SDS011;45733;52.668;6.860;2022-09-20T06:45:56;0.50;;;0.50;;
59856;SDS011;45733;52.668;6.860;2022-09-20T06:48:22;0.50;;;0.50;;
59856;SDS011;45733;52.668;6.860;2022-09-20T06:50:49;0.50;;;0.50;;
59856;SDS011;45733;52.668;6.860;2022-09-20T06:53:26;0.50;;;0.50;;
59856;SDS011;45733;52.668;6.860;2022-09-20T06:55:55;0.50;;;0.50;;
59856;SDS011;45733;52.668;6.860;2022-09-20T06:58:21;0.50;;;0.50;;
59856;SDS011;45733;52.668;6.860;2022-09-20T07:00:47;0.50;;;0.50;;
59856;SDS011;45733;52.668;6.860;2022-09-20T07:03:13;0.50;;;0.50;;
59856;SDS011;45733;52.668;6.860;2022-09-20T07:05:39;0.50;;;0.50;;
59856;SDS011;45733;52.668;6.860;2022-09-20T07:08:05;0.50;;;0.50;;
59856;SDS011;45733;52.668;6.860;2022-09-20T07:10:31;0.50;;;0.50;;
59856;SDS011;45733;52.668;6.860;2022-09-20T07:12:58;0.50;;;0.50;;
59856;SDS011;45733;52.668;6.860;2022-09-20T07:15:26;0.50;;;0.50;;
59856;SDS011;45733;52.668;6.860;2022-09-20T07:17:52;0.50;;;0.50;;
59856;SDS011;45733;52.668;6.860;2022-09-20T07:20:19;0.50;;;0.50;;
59856;SDS011;45733;52.668;6.860;2022-09-20T07:22:45;0.50;;;0.50;;
59856;SDS011;45733;52.668;6.860;2022-09-20T07:25:12;0.50;;;0.50;;
59856;SDS011;45733;52.668;6.860;2022-09-20T07:30:22;0.50;;;0.50;;
59856;SDS011;45733;52.668;6.860;2022-09-20T07:32:48;0.50;;;0.50;;
59856;SDS011;45733;52.668;6.860;2022-09-20T07:35:14;0.55;;;0.55;;
59856;SDS011;45733;52.668;6.860;2022-09-20T07:37:40;0.50;;;0.50;;
59856;SDS011;45733;52.668;6.860;2022-09-20T07:40:07;0.50;;;0.50;;
59856;SDS011;45733;52.668;6.860;2022-09-20T07:42:34;0.60;;;0.60;;
59856;SDS011;45733;52.668;6.860;2022-09-20T07:45:00;0.50;;;0.50;;
59856;SDS011;45733;52.668;6.860;2022-09-20T07:47:30;0.50;;;0.50;;
59856;SDS011;45733;52.668;6.860;2022-09-20T07:49:57;0.50;;;0.50;;
59856;SDS011;45733;52.668;6.860;2022-09-20T07:52:23;0.50;;;0.50;;
59856;SDS011;45733;52.668;6.860;2022-09-20T07:54:49;0.50;;;0.50;;
59856;SDS011;45733;52.668;6.860;2022-09-20T07:57:15;0.50;;;0.50;;
59856;SDS011;45733;52.668;6.860;2022-09-20T07:59:41;0.50;;;0.50;;
59856;SDS011;45733;52.668;6.860;2022-09-20T08:02:09;0.50;;;0.50;;
59856;SDS011;45733;52.668;6.860;2022-09-20T08:04:39;0.50;;;0.50;;
59856;SDS011;45733;52.668;6.860;2022-09-20T08:07:04;0.50;;;0.50;;
59856;SDS011;45733;52.668;6.860;2022-09-20T08:09:30;0.50;;;0.50;;
59856;SDS011;45733;52.668;6.860;2022-09-20T08:11:56;0.50;;;0.50;;
59856;SDS011;45733;52.668;6.860;2022-09-20T08:14:22;0.50;;;0.50;;
59856;SDS011;45733;52.668;6.860;2022-09-20T08:16:48;0.50;;;0.50;;
59856;SDS011;45733;52.668;6.860;2022-09-20T08:19:16;0.50;;;0.50;;
59856;SDS011;45733;52.668;6.860;2022-09-20T08:21:44;0.50;;;0.50;;
59856;SDS011;45733;52.668;6.860;2022-09-20T08:24:11;0.50;;;0.50;;
59856;SDS011;45733;52.668;6.860;2022-09-20T08:26:37;0.45;;;0.45;;
59856;SDS011;45733;52.668;6.860;2022-09-20T08:29:03;0.40;;;0.40;;
59856;SDS011;45733;52.668;6.860;2022-09-20T08:31:30;0.40;;;0.40;;
59856;SDS011;45733;52.668;6.860;2022-09-20T08:34:01;0.50;;;0.50;;
59856;SDS011;45733;52.668;6.860;2022-09-20T08:36:31;0.50;;;0.50;;
59856;SDS011;45733;52.668;6.860;2022-09-20T08:38:58;0.50;;;0.50;;
59856;SDS011;45733;52.668;6.860;2022-09-20T08:44:32;0.50;;;0.50;;
59856;SDS011;45733;52.668;6.860;2022-09-20T08:49:31;0.40;;;0.40;;
59856;SDS011;45733;52.668;6.860;2022-09-20T08:51:58;0.40;;;0.40;;
59856;SDS011;45733;52.668;6.860;2022-09-20T08:54:29;0.50;;;0.50;;
59856;SDS011;45733;52.668;6.860;2022-09-20T08:56:59;0.50;;;0.50;;
59856;SDS011;45733;52.668;6.860;2022-09-20T08:59:29;0.50;;;0.50;;
59856;SDS011;45733;52.668;6.860;2022-09-20T09:01:56;0.50;;;0.50;;
59856;SDS011;45733;52.668;6.860;2022-09-20T09:04:27;0.50;;;0.50;;
59856;SDS011;45733;52.668;6.860;2022-09-20T09:06:59;0.50;;;0.50;;
59856;SDS011;45733;52.668;6.860;2022-09-20T09:09:26;0.50;;;0.50;;
59856;SDS011;45733;52.668;6.860;2022-09-20T09:11:54;0.50;;;0.50;;
59856;SDS011;45733;52.668;6.860;2022-09-20T09:19:51;0.40;;;0.40;;
59856;SDS011;45733;52.668;6.860;2022-09-20T09:22:23;0.40;;;0.40;;
59856;SDS011;45733;52.668;6.860;2022-09-20T09:27:32;0.50;;;0.50;;
59856;SDS011;45733;52.668;6.860;2022-09-20T09:29:59;0.40;;;0.40;;
59856;SDS011;45733;52.668;6.860;2022-09-20T09:32:27;0.40;;;0.40;;
59856;SDS011;45733;52.668;6.860;2022-09-20T09:34:55;0.40;;;0.40;;
59856;SDS011;45733;52.668;6.860;2022-09-20T09:37:52;0.50;;;0.50;;
59856;SDS011;45733;52.668;6.860;2022-09-20T09:40:21;0.40;;;0.40;;
59856;SDS011;45733;52.668;6.860;2022-09-20T09:42:48;0.40;;;0.40;;
59856;SDS011;45733;52.668;6.860;2022-09-20T09:45:29;0.45;;;0.45;;
59856;SDS011;45733;52.668;6.860;2022-09-20T09:47:56;0.40;;;0.40;;
59856;SDS011;45733;52.668;6.860;2022-09-20T09:50:26;0.40;;;0.40;;
59856;SDS011;45733;52.668;6.860;2022-09-20T09:53:08;0.47;;;0.47;;
59856;SDS011;45733;52.668;6.860;2022-09-20T10:09:36;0.40;;;0.40;;
59856;SDS011;45733;52.668;6.860;2022-09-20T10:15:27;0.40;;;0.40;;
59856;SDS011;45733;52.668;6.860;2022-09-20T10:18:49;0.40;;;0.40;;
59856;SDS011;45733;52.668;6.860;2022-09-20T10:23:48;0.40;;;0.40;;
59856;SDS011;45733;52.668;6.860;2022-09-20T10:32:14;0.40;;;0.40;;
59856;SDS011;45733;52.668;6.860;2022-09-20T10:35:17;0.40;;;0.40;;
59856;SDS011;45733;52.668;6.860;2022-09-20T10:40:36;0.40;;;0.40;;
59856;SDS011;45733;52.668;6.860;2022-09-20T10:57:54;0.40;;;0.40;;
59856;SDS011;45733;52.668;6.860;2022-09-20T11:09:24;0.40;;;0.40;;
59856;SDS011;45733;52.668;6.860;2022-09-20T11:12:02;0.40;;;0.40;;
59856;SDS011;45733;52.668;6.860;2022-09-20T11:14:34;0.40;;;0.40;;
59856;SDS011;45733;52.668;6.860;2022-09-20T11:17:09;0.40;;;0.40;;
59856;SDS011;45733;52.668;6.860;2022-09-20T11:22:19;0.40;;;0.40;;
59856;SDS011;45733;52.668;6.860;2022-09-20T11:27:43;0.40;;;0.40;;
59856;SDS011;45733;52.668;6.860;2022-09-20T11:30:19;0.40;;;0.40;;
59856;SDS011;45733;52.668;6.860;2022-09-20T11:35:38;0.40;;;0.40;;
59856;SDS011;45733;52.668;6.860;2022-09-20T11:40:59;0.75;;;0.70;;
59856;SDS011;45733;52.668;6.860;2022-09-20T11:43:37;0.40;;;0.40;;
59856;SDS011;45733;52.668;6.860;2022-09-20T11:56:51;0.40;;;0.40;;
59856;SDS011;45733;52.668;6.860;2022-09-20T12:02:01;0.40;;;0.40;;
59856;SDS011;45733;52.668;6.860;2022-09-20T12:04:33;0.40;;;0.40;;
59856;SDS011;45733;52.668;6.860;2022-09-20T12:07:01;0.40;;;0.40;;
59856;SDS011;45733;52.668;6.860;2022-09-20T12:09:42;0.40;;;0.40;;
59856;SDS011;45733;52.668;6.860;2022-09-20T12:15:05;0.40;;;0.40;;
59856;SDS011;45733;52.668;6.860;2022-09-20T12:33:54;0.40;;;0.40;;
59856;SDS011;45733;52.668;6.860;2022-09-20T12:36:22;0.40;;;0.40;;
59856;SDS011;45733;52.668;6.860;2022-09-20T12:38:56;0.40;;;0.40;;
59856;SDS011;45733;52.668;6.860;2022-09-20T12:44:39;0.55;;;0.55;;
59856;SDS011;45733;52.668;6.860;2022-09-20T12:47:29;0.40;;;0.40;;
59856;SDS011;45733;52.668;6.860;2022-09-20T12:49:57;0.40;;;0.40;;
59856;SDS011;45733;52.668;6.860;2022-09-20T12:53:12;0.47;;;0.47;;
59856;SDS011;45733;52.668;6.860;2022-09-20T13:00:42;0.40;;;0.40;;
59856;SDS011;45733;52.668;6.860;2022-09-20T13:05:41;0.40;;;0.40;;
59856;SDS011;45733;52.668;6.860;2022-09-20T13:10:47;0.40;;;0.40;;
59856;SDS011;45733;52.668;6.860;2022-09-20T13:13:22;0.40;;;0.40;;
59856;SDS011;45733;52.668;6.860;2022-09-20T13:16:03;0.40;;;0.40;;
59856;SDS011;45733;52.668;6.860;2022-09-20T13:18:31;0.40;;;0.40;;
59856;SDS011;45733;52.668;6.860;2022-09-20T13:20:59;0.40;;;0.40;;
59856;SDS011;45733;52.668;6.860;2022-09-20T13:23:31;0.40;;;0.40;;
59856;SDS011;45733;52.668;6.860;2022-09-20T13:26:13;0.40;;;0.40;;
59856;SDS011;45733;52.668;6.860;2022-09-20T13:28:48;0.40;;;0.40;;
59856;SDS011;45733;52.668;6.860;2022-09-20T13:33:45;0.40;;;0.40;;
59856;SDS011;45733;52.668;6.860;2022-09-20T13:36:12;0.40;;;0.40;;
59856;SDS011;45733;52.668;6.860;2022-09-20T13:38:38;0.40;;;0.40;;
59856;SDS011;45733;52.668;6.860;2022-09-20T13:41:05;0.40;;;0.40;;
59856;SDS011;45733;52.668;6.860;2022-09-20T13:43:35;0.40;;;0.40;;
59856;SDS011;45733;52.668;6.860;2022-09-20T13:46:11;0.40;;;0.40;;
59856;SDS011;45733;52.668;6.860;2022-09-20T13:48:40;0.40;;;0.40;;
59856;SDS011;45733;52.668;6.860;2022-09-20T13:51:22;0.40;;;0.40;;
59856;SDS011;45733;52.668;6.860;2022-09-20T13:53:50;0.40;;;0.40;;
59856;SDS011;45733;52.668;6.860;2022-09-20T13:56:20;0.40;;;0.40;;
59856;SDS011;45733;52.668;6.860;2022-09-20T13:58:52;0.40;;;0.40;;
59856;SDS011;45733;52.668;6.860;2022-09-20T14:01:27;0.50;;;0.50;;
59856;SDS011;45733;52.668;6.860;2022-09-20T14:06:49;0.40;;;0.40;;
59856;SDS011;45733;52.668;6.860;2022-09-20T14:11:55;0.40;;;0.40;;
59856;SDS011;45733;52.668;6.860;2022-09-20T14:14:22;0.40;;;0.40;;
59856;SDS011;45733;52.668;6.860;2022-09-20T14:16:49;0.45;;;0.45;;
59856;SDS011;45733;52.668;6.860;2022-09-20T14:19:19;0.40;;;0.40;;
59856;SDS011;45733;52.668;6.860;2022-09-20T14:21:47;0.40;;;0.40;;
59856;SDS011;45733;52.668;6.860;2022-09-20T14:24:30;0.40;;;0.40;;
59856;SDS011;45733;52.668;6.860;2022-09-20T14:32:45;0.40;;;0.40;;
59856;SDS011;45733;52.668;6.860;2022-09-20T14:39:56;0.40;;;0.40;;
59856;SDS011;45733;52.668;6.860;2022-09-20T14:42:47;0.52;;;0.52;;
59856;SDS011;45733;52.668;6.860;2022-09-20T14:45:20;0.40;;;0.40;;
59856;SDS011;45733;52.668;6.860;2022-09-20T14:50:25;0.40;;;0.40;;
59856;SDS011;45733;52.668;6.860;2022-09-20T14:55:38;0.40;;;0.40;;
59856;SDS011;45733;52.668;6.860;2022-09-20T14:58:08;0.38;;;0.38;;
59856;SDS011;45733;52.668;6.860;2022-09-20T15:00:46;0.40;;;0.40;;
59856;SDS011;45733;52.668;6.860;2022-09-20T15:03:16;0.40;;;0.40;;
59856;SDS011;45733;52.668;6.860;2022-09-20T15:05:52;0.35;;;0.35;;
59856;SDS011;45733;52.668;6.860;2022-09-20T15:08:18;0.30;;;0.30;;
59856;SDS011;45733;52.668;6.860;2022-09-20T15:10:45;0.40;;;0.40;;
59856;SDS011;45733;52.668;6.860;2022-09-20T15:13:11;0.40;;;0.40;;
59856;SDS011;45733;52.668;6.860;2022-09-20T15:15:38;0.40;;;0.40;;
59856;SDS011;45733;52.668;6.860;2022-09-20T15:18:05;0.32;;;0.32;;
59856;SDS011;45733;52.668;6.860;2022-09-20T15:20:44;0.40;;;0.40;;
59856;SDS011;45733;52.668;6.860;2022-09-20T15:23:10;0.30;;;0.30;;
59856;SDS011;45733;52.668;6.860;2022-09-20T15:25:35;0.40;;;0.40;;
59856;SDS011;45733;52.668;6.860;2022-09-20T15:28:01;0.40;;;0.40;;
59856;SDS011;45733;52.668;6.860;2022-09-20T15:30:28;0.40;;;0.40;;
59856;SDS011;45733;52.668;6.860;2022-09-20T15:32:54;0.40;;;0.40;;
59856;SDS011;45733;52.668;6.860;2022-09-20T15:35:20;0.40;;;0.40;;
59856;SDS011;45733;52.668;6.860;2022-09-20T15:37:46;0.40;;;0.40;;
59856;SDS011;45733;52.668;6.860;2022-09-20T15:40:13;0.40;;;0.40;;
59856;SDS011;45733;52.668;6.860;2022-09-20T15:42:39;0.40;;;0.40;;
59856;SDS011;45733;52.668;6.860;2022-09-20T15:45:10;0.40;;;0.40;;
59856;SDS011;45733;52.668;6.860;2022-09-20T15:47:36;0.40;;;0.40;;
59856;SDS011;45733;52.668;6.860;2022-09-20T15:50:09;0.40;;;0.40;;
59856;SDS011;45733;52.668;6.860;2022-09-20T15:52:36;0.40;;;0.40;;
59856;SDS011;45733;52.668;6.860;2022-09-20T15:55:05;0.40;;;0.40;;
59856;SDS011;45733;52.668;6.860;2022-09-20T15:57:32;0.40;;;0.40;;
59856;SDS011;45733;52.668;6.860;2022-09-20T15:59:59;0.40;;;0.40;;
59856;SDS011;45733;52.668;6.860;2022-09-20T16:02:31;0.43;;;0.43;;
59856;SDS011;45733;52.668;6.860;2022-09-20T16:04:57;0.40;;;0.40;;
59856;SDS011;45733;52.668;6.860;2022-09-20T16:07:23;0.40;;;0.40;;
59856;SDS011;45733;52.668;6.860;2022-09-20T16:09:53;0.43;;;0.43;;
59856;SDS011;45733;52.668;6.860;2022-09-20T16:12:20;0.40;;;0.40;;
59856;SDS011;45733;52.668;6.860;2022-09-20T16:14:48;0.40;;;0.40;;
59856;SDS011;45733;52.668;6.860;2022-09-20T16:17:14;0.40;;;0.40;;
59856;SDS011;45733;52.668;6.860;2022-09-20T16:19:41;0.50;;;0.50;;
59856;SDS011;45733;52.668;6.860;2022-09-20T16:22:12;0.40;;;0.40;;
59856;SDS011;45733;52.668;6.860;2022-09-20T16:24:37;0.40;;;0.40;;
59856;SDS011;45733;52.668;6.860;2022-09-20T16:27:04;0.40;;;0.40;;
59856;SDS011;45733;52.668;6.860;2022-09-20T16:29:32;0.40;;;0.40;;
59856;SDS011;45733;52.668;6.860;2022-09-20T16:31:58;0.40;;;0.40;;
59856;SDS011;45733;52.668;6.860;2022-09-20T16:34:30;0.40;;;0.40;;
59856;SDS011;45733;52.668;6.860;2022-09-20T16:36:58;0.40;;;0.40;;
59856;SDS011;45733;52.668;6.860;2022-09-20T16:39:26;0.40;;;0.40;;
59856;SDS011;45733;52.668;6.860;2022-09-20T16:41:56;0.40;;;0.40;;
59856;SDS011;45733;52.668;6.860;2022-09-20T16:44:27;0.43;;;0.43;;
59856;SDS011;45733;52.668;6.860;2022-09-20T16:46:54;0.40;;;0.40;;
59856;SDS011;45733;52.668;6.860;2022-09-20T16:49:20;0.40;;;0.40;;
59856;SDS011;45733;52.668;6.860;2022-09-20T16:51:50;0.40;;;0.40;;
59856;SDS011;45733;52.668;6.860;2022-09-20T16:54:16;0.40;;;0.40;;
59856;SDS011;45733;52.668;6.860;2022-09-20T16:56:47;0.47;;;0.47;;
59856;SDS011;45733;52.668;6.860;2022-09-20T16:59:15;0.40;;;0.40;;
59856;SDS011;45733;52.668;6.860;2022-09-20T17:01:43;0.40;;;0.40;;
59856;SDS011;45733;52.668;6.860;2022-09-20T17:04:09;0.40;;;0.40;;
59856;SDS011;45733;52.668;6.860;2022-09-20T17:06:38;0.40;;;0.40;;
59856;SDS011;45733;52.668;6.860;2022-09-20T17:09:07;0.40;;;0.40;;
59856;SDS011;45733;52.668;6.860;2022-09-20T17:11:40;0.40;;;0.40;;
59856;SDS011;45733;52.668;6.860;2022-09-20T17:14:12;0.40;;;0.40;;
59856;SDS011;45733;52.668;6.860;2022-09-20T17:16:40;0.43;;;0.43;;
59856;SDS011;45733;52.668;6.860;2022-09-20T17:19:07;0.40;;;0.40;;
59856;SDS011;45733;52.668;6.860;2022-09-20T17:21:36;0.50;;;0.50;;
59856;SDS011;45733;52.668;6.860;2022-09-20T17:24:08;0.40;;;0.40;;
59856;SDS011;45733;52.668;6.860;2022-09-20T17:26:38;0.40;;;0.40;;
59856;SDS011;45733;52.668;6.860;2022-09-20T17:29:06;0.40;;;0.40;;
59856;SDS011;45733;52.668;6.860;2022-09-20T17:31:35;0.40;;;0.40;;
59856;SDS011;45733;52.668;6.860;2022-09-20T17:34:03;0.40;;;0.40;;
59856;SDS011;45733;52.668;6.860;2022-09-20T17:36:39;0.40;;;0.40;;
59856;SDS011;45733;52.668;6.860;2022-09-20T17:39:10;0.40;;;0.40;;
59856;SDS011;45733;52.668;6.860;2022-09-20T17:41:40;0.50;;;0.50;;
59856;SDS011;45733;52.668;6.860;2022-09-20T17:44:11;0.47;;;0.47;;
59856;SDS011;45733;52.668;6.860;2022-09-20T17:46:39;0.50;;;0.50;;
59856;SDS011;45733;52.668;6.860;2022-09-20T17:49:24;0.50;;;0.50;;
59856;SDS011;45733;52.668;6.860;2022-09-20T17:51:52;0.47;;;0.47;;
59856;SDS011;45733;52.668;6.860;2022-09-20T17:54:19;0.40;;;0.40;;
59856;SDS011;45733;52.668;6.860;2022-09-20T17:56:47;0.40;;;0.40;;
59856;SDS011;45733;52.668;6.860;2022-09-20T17:59:15;0.40;;;0.40;;
59856;SDS011;45733;52.668;6.860;2022-09-20T18:01:43;0.40;;;0.40;;
59856;SDS011;45733;52.668;6.860;2022-09-20T18:04:10;0.50;;;0.50;;
59856;SDS011;45733;52.668;6.860;2022-09-20T18:06:37;0.50;;;0.50;;
59856;SDS011;45733;52.668;6.860;2022-09-20T18:09:17;0.50;;;0.50;;
59856;SDS011;45733;52.668;6.860;2022-09-20T18:11:45;0.40;;;0.40;;
59856;SDS011;45733;52.668;6.860;2022-09-20T18:14:14;0.50;;;0.50;;
59856;SDS011;45733;52.668;6.860;2022-09-20T18:16:42;0.50;;;0.50;;
59856;SDS011;45733;52.668;6.860;2022-09-20T18:19:11;0.50;;;0.50;;
59856;SDS011;45733;52.668;6.860;2022-09-20T18:21:38;0.50;;;0.50;;
59856;SDS011;45733;52.668;6.860;2022-09-20T18:24:05;0.50;;;0.50;;
59856;SDS011;45733;52.668;6.860;2022-09-20T18:26:33;0.50;;;0.50;;
59856;SDS011;45733;52.668;6.860;2022-09-20T18:29:02;0.45;;;0.45;;
59856;SDS011;45733;52.668;6.860;2022-09-20T18:31:37;0.50;;;0.50;;
59856;SDS011;45733;52.668;6.860;2022-09-20T18:34:17;0.50;;;0.50;;
59856;SDS011;45733;52.668;6.860;2022-09-20T18:36:45;0.40;;;0.40;;
59856;SDS011;45733;52.668;6.860;2022-09-20T18:39:20;0.50;;;0.50;;
59856;SDS011;45733;52.668;6.860;2022-09-20T18:41:53;0.50;;;0.50;;
59856;SDS011;45733;52.668;6.860;2022-09-20T18:44:21;0.50;;;0.50;;
59856;SDS011;45733;52.668;6.860;2022-09-20T18:46:49;0.40;;;0.40;;
59856;SDS011;45733;52.668;6.860;2022-09-20T18:49:19;0.50;;;0.50;;
59856;SDS011;45733;52.668;6.860;2022-09-20T18:51:45;0.50;;;0.50;;
59856;SDS011;45733;52.668;6.860;2022-09-20T18:54:12;0.40;;;0.40;;
59856;SDS011;45733;52.668;6.860;2022-09-20T18:56:46;0.40;;;0.40;;
59856;SDS011;45733;52.668;6.860;2022-09-20T18:59:14;0.50;;;0.50;;
59856;SDS011;45733;52.668;6.860;2022-09-20T19:06:57;0.50;;;0.50;;
59856;SDS011;45733;52.668;6.860;2022-09-20T19:17:35;0.45;;;0.45;;
59856;SDS011;45733;52.668;6.860;2022-09-20T19:26:04;0.40;;;0.40;;
59856;SDS011;45733;52.668;6.860;2022-09-20T19:28:32;0.40;;;0.40;;
59856;SDS011;45733;52.668;6.860;2022-09-20T19:30:58;0.50;;;0.50;;
59856;SDS011;45733;52.668;6.860;2022-09-20T19:33:24;0.50;;;0.50;;
59856;SDS011;45733;52.668;6.860;2022-09-20T19:35:50;0.40;;;0.40;;
59856;SDS011;45733;52.668;6.860;2022-09-20T19:49:54;0.50;;;0.50;;
59856;SDS011;45733;52.668;6.860;2022-09-20T19:52:28;0.50;;;0.50;;
59856;SDS011;45733;52.668;6.860;2022-09-20T19:54:55;0.50;;;0.50;;
59856;SDS011;45733;52.668;6.860;2022-09-20T20:00:23;0.40;;;0.40;;
59856;SDS011;45733;52.668;6.860;2022-09-20T20:02:49;0.40;;;0.40;;
59856;SDS011;45733;52.668;6.860;2022-09-20T20:05:17;0.50;;;0.50;;
59856;SDS011;45733;52.668;6.860;2022-09-20T20:28:29;0.45;;;0.45;;
59856;SDS011;45733;52.668;6.860;2022-09-20T20:30:56;0.50;;;0.50;;
59856;SDS011;45733;52.668;6.860;2022-09-20T20:33:26;0.50;;;0.50;;
59856;SDS011;45733;52.668;6.860;2022-09-20T20:35:53;0.50;;;0.50;;
59856;SDS011;45733;52.668;6.860;2022-09-20T20:38:20;0.50;;;0.50;;
59856;SDS011;45733;52.668;6.860;2022-09-20T20:43:46;0.50;;;0.50;;
59856;SDS011;45733;52.668;6.860;2022-09-20T20:46:16;0.50;;;0.50;;
59856;SDS011;45733;52.668;6.860;2022-09-20T20:48:45;0.50;;;0.50;;
59856;SDS011;45733;52.668;6.860;2022-09-20T20:51:15;0.50;;;0.50;;
59856;SDS011;45733;52.668;6.860;2022-09-20T20:53:46;0.50;;;0.50;;
59856;SDS011;45733;52.668;6.860;2022-09-20T20:56:21;0.50;;;0.50;;
59856;SDS011;45733;52.668;6.860;2022-09-20T20:58:51;0.50;;;0.50;;
59856;SDS011;45733;52.668;6.860;2022-09-20T21:01:22;0.50;;;0.50;;
59856;SDS011;45733;52.668;6.860;2022-09-20T21:03:51;0.50;;;0.50;;
59856;SDS011;45733;52.668;6.860;2022-09-20T21:06:18;0.50;;;0.50;;
59856;SDS011;45733;52.668;6.860;2022-09-20T21:08:46;0.50;;;0.50;;
59856;SDS011;45733;52.668;6.860;2022-09-20T21:11:13;0.50;;;0.50;;
59856;SDS011;45733;52.668;6.860;2022-09-20T21:13:49;0.50;;;0.50;;
59856;SDS011;45733;52.668;6.860;2022-09-20T21:16:17;0.50;;;0.50;;
59856;SDS011;45733;52.668;6.860;2022-09-20T21:18:45;0.50;;;0.50;;
59856;SDS011;45733;52.668;6.860;2022-09-20T21:21:22;0.50;;;0.50;;
59856;SDS011;45733;52.668;6.860;2022-09-20T21:23:51;0.50;;;0.50;;
59856;SDS011;45733;52.668;6.860;2022-09-20T21:26:21;0.50;;;0.50;;
59856;SDS011;45733;52.668;6.860;2022-09-20T21:28:52;0.50;;;0.50;;
59856;SDS011;45733;52.668;6.860;2022-09-20T21:31:21;0.50;;;0.50;;
59856;SDS011;45733;52.668;6.860;2022-09-20T21:33:48;0.50;;;0.50;;
59856;SDS011;45733;52.668;6.860;2022-09-20T21:36:15;0.50;;;0.50;;
59856;SDS011;45733;52.668;6.860;2022-09-20T21:38:42;0.50;;;0.50;;
59856;SDS011;45733;52.668;6.860;2022-09-20T21:41:16;0.50;;;0.50;;